Terminal Aerodrome Forecast
Issued by NWS Goodland, KS

Home | Current Version | Previous Version | Text Only | Print | Product List | Glossary On
Versions: 1 2 3 4 5 6 7 8 9 10 11 12
000
FTUS43 KGLD 171725
TAFGLD
TAF
KGLD 171725Z 1718/1818 30015G25KT P6SM FEW250
     FM172100 01011KT P6SM SCT050 SCT200
     FM180400 35025G35KT P6SM -SHRASN BKN035
     FM181200 33020G30KT P6SM FEW250=

USA.gov is the U.S. government's official web portal to all federal, state and local government web resources and services.